createdAt,value
2019-01-29T00:01:03.041Z,98.90
2019-01-29T00:03:35.050Z,98.50
2019-01-29T00:06:08.876Z,98.60
2019-01-29T00:08:40.882Z,98.50
2019-01-29T00:11:12.789Z,98.70
2019-01-29T00:13:44.693Z,98.50
2019-01-29T00:16:16.711Z,98.30
2019-01-29T00:18:48.618Z,98.10
2019-01-29T00:21:20.524Z,98.10
2019-01-29T00:23:52.432Z,98.20
2019-01-29T00:26:24.321Z,98.20
2019-01-29T00:28:56.334Z,98.40
2019-01-29T00:31:28.235Z,98.10
2019-01-29T00:34:00.147Z,98.10
2019-01-29T00:36:32.051Z,98.20
2019-01-29T00:39:05.471Z,98.10
2019-01-29T00:41:37.365Z,97.80
2019-01-29T00:44:09.279Z,97.90
2019-01-29T00:46:41.179Z,97.80
2019-01-29T00:49:13.080Z,97.90
2019-01-29T00:51:44.983Z,98.00
2019-01-29T00:54:16.902Z,98.00
2019-01-29T00:56:48.803Z,97.90
2019-01-29T00:59:20.699Z,97.80
2019-01-29T01:01:52.615Z,97.70
2019-01-29T01:04:24.643Z,98.00
2019-01-29T01:06:56.621Z,97.90
2019-01-29T01:09:28.559Z,98.00
2019-01-29T01:12:00.460Z,97.90
2019-01-29T01:14:32.359Z,97.90
2019-01-29T01:17:04.370Z,97.90
2019-01-29T01:19:36.278Z,97.90
2019-01-29T01:22:08.390Z,97.80
2019-01-29T01:24:40.294Z,97.80
2019-01-29T01:27:12.298Z,97.80
2019-01-29T01:29:44.437Z,97.30
2019-01-29T01:32:16.347Z,97.20
2019-01-29T01:34:48.268Z,97.10
2019-01-29T01:37:20.184Z,97.20
2019-01-29T01:39:52.099Z,97.10
2019-01-29T01:42:24.007Z,97.10
2019-01-29T01:44:55.922Z,97.30
2019-01-29T01:47:27.830Z,97.30
2019-01-29T01:49:59.732Z,97.40
2019-01-29T01:52:31.642Z,97.60
2019-01-29T01:55:03.548Z,97.40
2019-01-29T01:57:35.457Z,97.50
2019-01-29T02:00:09.260Z,97.60
2019-01-29T02:02:41.171Z,97.60
2019-01-29T02:05:13.379Z,97.50
2019-01-29T02:07:45.586Z,97.40
2019-01-29T02:10:24.473Z,97.30
2019-01-29T02:12:56.413Z,97.10
2019-01-29T02:15:28.621Z,97.10
2019-01-29T02:18:00.601Z,97.10
2019-01-29T02:20:32.610Z,97.00
2019-01-29T02:23:08.227Z,97.10
2019-01-29T02:25:38.230Z,97.30
2019-01-29T02:28:10.234Z,97.20
2019-01-29T02:30:42.155Z,97.20
2019-01-29T02:33:14.052Z,97.50
2019-01-29T02:35:45.969Z,97.30
2019-01-29T02:38:17.867Z,97.10
2019-01-29T02:40:49.783Z,97.20
2019-01-29T02:43:21.739Z,97.30
2019-01-29T02:45:53.688Z,96.80
2019-01-29T02:48:25.593Z,97.00
2019-01-29T02:50:57.504Z,97.10
2019-01-29T02:53:29.409Z,97.10
2019-01-29T02:56:01.326Z,97.30
2019-01-29T02:58:33.226Z,97.40
2019-01-29T03:01:05.343Z,97.80
2019-01-29T03:03:37.246Z,97.40
2019-01-29T03:06:09.467Z,97.70
2019-01-29T03:08:41.482Z,97.60
2019-01-29T03:11:13.423Z,97.50
2019-01-29T03:13:45.321Z,97.30
2019-01-29T03:16:17.229Z,97.50
2019-01-29T03:18:49.157Z,97.40
2019-01-29T03:21:21.053Z,97.30
2019-01-29T03:23:53.067Z,97.10
2019-01-29T03:26:24.970Z,97.20
2019-01-29T03:28:56.879Z,97.30
2019-01-29T03:31:28.761Z,97.10
2019-01-29T03:34:00.649Z,97.10
2019-01-29T03:36:32.525Z,97.30
2019-01-29T03:39:06.089Z,97.60
2019-01-29T03:41:38.153Z,97.40
2019-01-29T03:44:10.050Z,97.50
2019-01-29T03:46:41.963Z,97.20
2019-01-29T03:49:13.864Z,97.30
2019-01-29T03:51:45.767Z,97.40
2019-01-29T03:54:17.677Z,97.10
2019-01-29T03:56:49.582Z,97.20
2019-01-29T03:59:21.479Z,97.20
2019-01-29T04:01:53.478Z,97.20
2019-01-29T04:04:25.382Z,97.20
2019-01-29T04:06:57.292Z,97.00
2019-01-29T04:09:29.194Z,97.10
2019-01-29T04:12:01.155Z,97.10
2019-01-29T04:14:33.040Z,96.70
2019-01-29T04:17:05.043Z,97.00
2019-01-29T04:19:36.952Z,96.90
2019-01-29T04:22:08.857Z,97.10
2019-01-29T04:24:40.760Z,96.90
2019-01-29T04:27:12.652Z,96.80
2019-01-29T04:29:44.574Z,97.00
2019-01-29T04:32:16.469Z,97.10
2019-01-29T04:34:48.374Z,97.20
2019-01-29T04:37:20.278Z,96.90
2019-01-29T04:39:52.190Z,96.90
2019-01-29T04:42:24.098Z,96.70
2019-01-29T04:44:56.007Z,96.80
2019-01-29T04:47:27.912Z,96.80
2019-01-29T04:49:59.821Z,97.00
2019-01-29T04:52:31.850Z,97.30
2019-01-29T04:55:03.940Z,96.80
2019-01-29T04:57:35.907Z,96.70
2019-01-29T05:00:11.785Z,96.80
2019-01-29T05:02:43.700Z,96.80
2019-01-29T05:05:16.205Z,96.80
2019-01-29T05:07:48.152Z,97.10
2019-01-29T05:10:20.810Z,96.90
2019-01-29T05:12:52.907Z,96.80
2019-01-29T05:15:24.916Z,96.80
2019-01-29T05:17:56.812Z,97.10
2019-01-29T05:20:28.715Z,97.20
2019-01-29T05:23:00.614Z,97.20
2019-01-29T05:25:32.526Z,96.90
2019-01-29T05:28:04.526Z,96.50
2019-01-29T05:30:36.435Z,96.80
2019-01-29T05:33:08.443Z,96.90
2019-01-29T05:35:40.346Z,96.90
2019-01-29T05:38:12.250Z,97.00
2019-01-29T05:40:44.152Z,96.90
2019-01-29T05:43:16.059Z,96.80
2019-01-29T05:45:47.954Z,97.50
2019-01-29T05:48:19.954Z,97.10
2019-01-29T05:50:51.847Z,97.50
2019-01-29T05:53:23.757Z,97.40
2019-01-29T05:55:55.658Z,97.60
2019-01-29T05:58:27.769Z,97.70
2019-01-29T06:00:59.720Z,97.20
2019-01-29T06:03:31.634Z,97.40
2019-01-29T06:06:03.669Z,97.30
2019-01-29T06:08:35.680Z,97.00
2019-01-29T06:11:07.799Z,96.50
2019-01-29T06:13:39.824Z,96.80
2019-01-29T06:16:11.941Z,96.70
2019-01-29T06:18:43.962Z,96.70
2019-01-29T06:21:15.988Z,96.70
2019-01-29T06:23:48.019Z,96.60
2019-01-29T06:26:20.154Z,96.60
2019-01-29T06:28:52.159Z,96.80
2019-01-29T06:31:24.109Z,96.70
2019-01-29T06:33:56.013Z,96.70
2019-01-29T06:36:27.918Z,96.30
2019-01-29T06:38:59.818Z,96.30
2019-01-29T06:41:31.724Z,96.30
2019-01-29T06:44:03.637Z,96.30
2019-01-29T06:46:35.533Z,96.50
2019-01-29T06:49:07.743Z,96.20
2019-01-29T06:51:39.643Z,96.20
2019-01-29T06:54:11.548Z,96.20
2019-01-29T06:56:43.460Z,96.60
2019-01-29T06:59:15.361Z,95.90
2019-01-29T07:01:47.267Z,96.20
2019-01-29T07:04:19.184Z,95.70
2019-01-29T07:06:51.090Z,96.00
2019-01-29T07:09:23.002Z,95.90
2019-01-29T07:12:04.340Z,96.10
2019-01-29T07:14:36.247Z,96.20
2019-01-29T07:17:32.176Z,96.00
2019-01-29T07:20:07.131Z,95.90
2019-01-29T07:22:39.142Z,95.30
2019-01-29T07:25:12.630Z,95.60
2019-01-29T07:27:44.530Z,95.50
2019-01-29T07:30:17.068Z,95.20
2019-01-29T07:32:49.019Z,95.40
2019-01-29T07:35:20.931Z,95.20
2019-01-29T07:37:52.837Z,95.10
2019-01-29T07:40:24.847Z,95.30
2019-01-29T07:42:56.757Z,95.20
2019-01-29T07:45:28.660Z,95.20
2019-01-29T07:48:00.566Z,95.00
2019-01-29T07:50:32.562Z,94.90
2019-01-29T07:53:04.683Z,95.10
2019-01-29T07:55:36.588Z,95.10
2019-01-29T07:58:08.506Z,95.10
2019-01-29T08:00:42.213Z,95.20
2019-01-29T08:03:14.082Z,95.20
2019-01-29T08:05:45.996Z,94.80
2019-01-29T08:08:17.916Z,94.70
2019-01-29T08:10:49.818Z,94.80
2019-01-29T08:13:21.726Z,95.00
2019-01-29T08:15:53.739Z,95.00
2019-01-29T08:18:25.651Z,94.90
2019-01-29T08:20:57.569Z,94.70
2019-01-29T08:23:29.490Z,94.70
2019-01-29T08:26:01.389Z,94.80
2019-01-29T08:28:33.327Z,94.80
2019-01-29T08:31:05.356Z,94.80
2019-01-29T08:33:37.262Z,94.80
2019-01-29T08:36:09.269Z,94.40
2019-01-29T08:38:41.180Z,94.00
2019-01-29T08:41:13.087Z,94.20
2019-01-29T08:43:44.996Z,94.20
2019-01-29T08:46:16.905Z,94.30
2019-01-29T08:48:48.843Z,94.40
2019-01-29T08:51:20.739Z,94.30
2019-01-29T08:53:52.651Z,94.10
2019-01-29T08:56:24.676Z,94.00
2019-01-29T08:58:56.676Z,93.90
2019-01-29T09:01:28.552Z,93.90
2019-01-29T09:04:00.567Z,93.30
2019-01-29T09:06:32.473Z,93.60
2019-01-29T09:09:07.720Z,93.70
2019-01-29T09:11:39.727Z,93.70
2019-01-29T09:14:11.640Z,94.00
2019-01-29T09:16:43.536Z,93.80
2019-01-29T09:19:15.451Z,93.20
2019-01-29T09:21:47.352Z,93.50
2019-01-29T09:24:19.297Z,93.50
2019-01-29T09:26:51.205Z,93.30
2019-01-29T09:29:23.116Z,93.20
2019-01-29T09:31:55.026Z,93.60
2019-01-29T09:34:27.031Z,93.20
2019-01-29T09:36:59.040Z,93.70
2019-01-29T09:39:30.948Z,93.30
2019-01-29T09:42:02.957Z,93.20
2019-01-29T09:44:34.980Z,93.20
2019-01-29T09:47:07.562Z,93.40
2019-01-29T09:49:39.474Z,93.20
2019-01-29T09:52:11.386Z,93.20
2019-01-29T09:54:43.290Z,93.20
2019-01-29T09:57:15.191Z,93.00
2019-01-29T09:59:47.112Z,93.30
2019-01-29T10:02:19.021Z,93.40
2019-01-29T10:04:50.929Z,92.80
2019-01-29T10:07:22.839Z,93.20
2019-01-29T10:09:54.746Z,93.60
2019-01-29T10:12:26.647Z,93.70
2019-01-29T10:14:58.564Z,94.00
2019-01-29T10:17:30.842Z,93.60
2019-01-29T10:20:03.367Z,93.40
2019-01-29T10:22:35.338Z,92.80
2019-01-29T10:25:09.337Z,92.70
2019-01-29T10:27:41.246Z,92.00
2019-01-29T10:30:13.819Z,92.80
2019-01-29T10:32:45.914Z,92.30
2019-01-29T10:35:19.603Z,92.20
2019-01-29T10:37:51.617Z,92.50
2019-01-29T10:40:25.247Z,92.70
2019-01-29T10:42:58.275Z,92.10
2019-01-29T10:45:31.395Z,92.20
2019-01-29T10:48:03.304Z,92.00
2019-01-29T10:50:35.422Z,92.00
2019-01-29T10:53:07.671Z,92.40
2019-01-29T10:55:46.944Z,92.20
2019-01-29T10:58:13.298Z,91.60
2019-01-29T11:00:45.202Z,91.40
2019-01-29T11:03:17.109Z,91.00
2019-01-29T11:05:49.032Z,91.10
2019-01-29T11:08:20.939Z,91.20
2019-01-29T11:10:52.967Z,91.30
2019-01-29T11:13:24.843Z,91.30
2019-01-29T11:15:56.757Z,90.30
2019-01-29T11:18:28.667Z,90.80
2019-01-29T11:21:00.571Z,90.40
2019-01-29T11:23:32.471Z,90.80
2019-01-29T11:26:05.363Z,90.60
2019-01-29T11:28:37.271Z,90.10
2019-01-29T11:31:09.479Z,88.80
2019-01-29T11:33:41.406Z,90.10
2019-01-29T11:36:13.422Z,90.30
2019-01-29T11:38:45.331Z,88.70
2019-01-29T11:41:17.338Z,89.20
2019-01-29T11:43:49.254Z,89.40
2019-01-29T11:46:21.264Z,88.30
2019-01-29T11:48:53.175Z,89.20
2019-01-29T11:51:25.092Z,90.00
2019-01-29T11:53:57.007Z,87.10
2019-01-29T11:56:28.922Z,86.40
2019-01-29T11:59:00.826Z,86.00
2019-01-29T12:01:32.739Z,84.50
2019-01-29T12:04:04.742Z,83.80
2019-01-29T12:06:36.652Z,81.70
2019-01-29T12:09:11.149Z,81.50
2019-01-29T12:11:43.255Z,82.40
2019-01-29T12:14:15.162Z,80.80
2019-01-29T12:16:47.075Z,80.30
2019-01-29T12:19:18.975Z,81.10
2019-01-29T12:21:50.876Z,81.60
2019-01-29T12:24:22.784Z,81.10
2019-01-29T12:26:54.738Z,81.80
2019-01-29T12:29:26.655Z,81.00
2019-01-29T12:31:58.889Z,83.80
2019-01-29T12:34:30.758Z,84.10
2019-01-29T12:37:02.670Z,85.10
2019-01-29T12:39:34.581Z,84.40
2019-01-29T12:42:06.598Z,83.70
2019-01-29T12:44:38.500Z,82.60
2019-01-29T12:47:10.410Z,82.10
2019-01-29T12:49:42.311Z,81.30
2019-01-29T12:52:42.183Z,81.50
2019-01-29T12:55:14.392Z,82.00
2019-01-29T12:57:46.305Z,82.50
2019-01-29T13:00:19.213Z,82.70
2019-01-29T13:02:51.131Z,82.40
2019-01-29T13:05:23.113Z,80.30
2019-01-29T13:07:55.426Z,81.30
2019-01-29T13:10:27.644Z,81.30
2019-01-29T13:12:59.555Z,80.50
2019-01-29T13:15:31.878Z,81.10
2019-01-29T13:18:04.093Z,80.20
2019-01-29T13:20:36.002Z,81.50
2019-01-29T13:23:08.005Z,81.30
2019-01-29T13:25:40.127Z,81.20
2019-01-29T13:28:12.170Z,82.10
2019-01-29T13:30:44.074Z,81.60
2019-01-29T13:33:16.926Z,82.10
2019-01-29T13:35:48.900Z,80.50
2019-01-29T13:38:20.810Z,80.50
2019-01-29T13:40:52.712Z,81.10
2019-01-29T13:43:24.653Z,80.50
2019-01-29T13:45:56.535Z,81.50
2019-01-29T13:48:28.553Z,81.90
2019-01-29T13:51:02.572Z,82.80
2019-01-29T13:53:34.482Z,82.50
2019-01-29T13:56:06.808Z,80.90
2019-01-29T13:58:38.710Z,81.20
2019-01-29T14:01:10.734Z,80.20
2019-01-29T14:03:42.643Z,80.90
2019-01-29T14:06:14.553Z,81.70
2019-01-29T14:08:46.766Z,81.80
2019-01-29T14:11:18.672Z,82.20
2019-01-29T14:13:50.573Z,83.80
2019-01-29T14:16:22.488Z,81.00
2019-01-29T14:18:54.406Z,81.00
2019-01-29T14:21:26.319Z,82.40
2019-01-29T14:23:58.228Z,81.40
2019-01-29T14:26:30.257Z,81.90
2019-01-29T14:29:02.239Z,83.00
2019-01-29T14:31:34.268Z,83.50
2019-01-29T14:34:06.595Z,82.60
2019-01-29T14:36:38.745Z,82.40
2019-01-29T14:39:28.540Z,81.90
2019-01-29T14:42:00.723Z,82.50
2019-01-29T14:44:40.318Z,81.90
2019-01-29T14:47:12.439Z,82.40
2019-01-29T14:49:44.462Z,82.70
2019-01-29T14:52:16.514Z,82.40
2019-01-29T14:54:48.535Z,83.30
2019-01-29T14:57:20.550Z,83.00
2019-01-29T14:59:52.579Z,83.70
2019-01-29T15:02:24.613Z,84.80
2019-01-29T15:04:57.729Z,84.10
2019-01-29T15:07:30.642Z,83.90
2019-01-29T15:10:02.734Z,83.80
2019-01-29T15:12:34.713Z,83.00
2019-01-29T15:15:09.664Z,83.20
2019-01-29T15:18:12.253Z,83.50
2019-01-29T15:20:44.168Z,85.80
2019-01-29T15:23:16.078Z,88.70
2019-01-29T15:25:48.099Z,89.70
2019-01-29T15:28:20.003Z,91.40
2019-01-29T15:30:52.015Z,92.50
2019-01-29T15:33:23.914Z,91.90
2019-01-29T15:35:55.930Z,91.80
2019-01-29T15:38:27.830Z,91.60
2019-01-29T15:40:59.939Z,92.90
2019-01-29T15:43:31.850Z,93.50
2019-01-29T15:46:03.715Z,93.80
2019-01-29T15:48:35.617Z,94.20
2019-01-29T15:51:07.953Z,94.10
2019-01-29T15:53:39.959Z,94.20
2019-01-29T15:56:11.875Z,94.30
2019-01-29T15:58:43.773Z,94.20
2019-01-29T16:01:15.808Z,94.20
2019-01-29T16:03:47.677Z,94.20
2019-01-29T16:06:19.574Z,94.40
2019-01-29T16:08:51.664Z,94.40
2019-01-29T16:11:23.574Z,94.40
2019-01-29T16:13:55.485Z,94.00
2019-01-29T16:16:27.391Z,94.00
2019-01-29T16:18:59.341Z,93.30
2019-01-29T16:21:31.235Z,93.70
2019-01-29T16:24:03.155Z,94.00
2019-01-29T16:26:35.063Z,95.20
2019-01-29T16:29:07.194Z,95.50
2019-01-29T16:31:39.484Z,95.90
2019-01-29T16:34:11.388Z,95.90
2019-01-29T16:36:43.287Z,95.80
2019-01-29T16:39:15.201Z,95.50
2019-01-29T16:41:47.109Z,95.10
2019-01-29T16:44:19.020Z,94.90
2019-01-29T16:46:50.926Z,94.80
2019-01-29T16:49:22.841Z,95.10
2019-01-29T16:51:54.733Z,95.30
2019-01-29T16:54:26.641Z,95.70
2019-01-29T16:56:58.547Z,96.00
2019-01-29T16:59:30.463Z,95.60
2019-01-29T17:02:02.433Z,95.80
2019-01-29T17:04:34.359Z,95.70
2019-01-29T17:07:06.271Z,95.40
2019-01-29T17:09:38.225Z,95.40
2019-01-29T17:12:10.234Z,95.60
2019-01-29T17:14:42.167Z,95.40
2019-01-29T17:17:14.060Z,95.20
2019-01-29T17:19:45.974Z,95.10
2019-01-29T17:22:17.883Z,94.90
2019-01-29T17:24:49.911Z,94.70
2019-01-29T17:27:21.782Z,95.10
2019-01-29T17:29:53.698Z,95.80
2019-01-29T17:32:30.530Z,96.10
2019-01-29T17:34:59.350Z,96.00
2019-01-29T17:37:31.425Z,95.70
2019-01-29T17:40:03.628Z,95.40
2019-01-29T17:42:35.635Z,95.60
2019-01-29T17:45:10.161Z,95.80
2019-01-29T17:47:42.159Z,96.00
2019-01-29T17:50:21.829Z,95.30
2019-01-29T17:52:53.942Z,95.80
2019-01-29T17:55:26.636Z,96.00
2019-01-29T17:57:58.758Z,97.00
2019-01-29T18:00:32.928Z,97.30
2019-01-29T18:03:05.438Z,97.30
2019-01-29T18:05:37.833Z,97.20
2019-01-29T18:08:09.833Z,96.80
2019-01-29T18:10:42.047Z,97.00
2019-01-29T18:13:14.151Z,96.70
2019-01-29T18:15:46.384Z,96.40
2019-01-29T18:18:18.385Z,96.50
2019-01-29T18:20:50.384Z,97.00
2019-01-29T18:23:22.376Z,97.20
2019-01-29T18:25:54.366Z,97.30
2019-01-29T18:28:26.368Z,97.10
2019-01-29T18:30:58.367Z,96.50
2019-01-29T18:33:30.438Z,96.20
2019-01-29T18:36:02.426Z,96.80
2019-01-29T18:38:34.427Z,97.70
2019-01-29T18:41:06.479Z,97.80
2019-01-29T18:43:38.488Z,98.00
2019-01-29T18:46:10.483Z,98.20
2019-01-29T18:48:42.475Z,97.70
2019-01-29T18:51:14.472Z,98.00
2019-01-29T18:53:47.612Z,99.10
2019-01-29T18:56:19.612Z,98.60
2019-01-29T18:58:51.611Z,98.30
2019-01-29T19:01:23.606Z,97.40
2019-01-29T19:03:55.613Z,97.30
2019-01-29T19:06:27.675Z,97.60
2019-01-29T19:08:59.667Z,97.50
2019-01-29T19:11:31.666Z,97.10
2019-01-29T19:14:03.755Z,96.90
2019-01-29T19:16:35.886Z,96.80
2019-01-29T19:19:07.875Z,96.90
2019-01-29T19:21:39.881Z,97.10
2019-01-29T19:24:11.868Z,97.70
2019-01-29T19:26:43.880Z,98.00
2019-01-29T19:29:15.909Z,98.00
2019-01-29T19:31:47.907Z,97.80
2019-01-29T19:34:19.896Z,98.40
2019-01-29T19:36:51.890Z,98.20
2019-01-29T19:39:24.000Z,97.50
2019-01-29T19:41:56.005Z,97.10
2019-01-29T19:44:28.014Z,97.40
2019-01-29T19:47:00.116Z,97.60
2019-01-29T19:49:32.114Z,97.70
2019-01-29T19:52:04.118Z,97.40
2019-01-29T19:54:36.112Z,97.80
2019-01-29T19:57:08.127Z,97.70
2019-01-29T19:59:40.116Z,97.70
2019-01-29T20:02:12.269Z,97.70
2019-01-29T20:04:44.359Z,97.90
2019-01-29T20:07:16.374Z,97.80
2019-01-29T20:09:48.435Z,97.10
2019-01-29T20:12:20.459Z,97.10
2019-01-29T20:14:52.465Z,97.50
2019-01-29T20:17:24.460Z,97.90
2019-01-29T20:19:56.459Z,99.90
2019-01-29T20:22:28.471Z,99.90
2019-01-29T20:25:00.461Z,99.70
2019-01-29T20:27:32.459Z,99.00
2019-01-29T20:30:05.030Z,98.50
2019-01-29T20:32:37.038Z,98.00
2019-01-29T20:35:09.420Z,97.40
2019-01-29T20:37:41.506Z,97.00
2019-01-29T20:40:16.702Z,97.40
2019-01-29T20:42:48.968Z,97.50
2019-01-29T20:45:21.247Z,97.30
2019-01-29T20:47:53.244Z,98.00
2019-01-29T20:50:34.643Z,98.30
2019-01-29T20:53:06.835Z,98.30
2019-01-29T20:55:38.890Z,98.50
2019-01-29T20:58:10.920Z,98.30
2019-01-29T21:00:43.335Z,98.30
2019-01-29T21:03:15.330Z,98.60
2019-01-29T21:05:47.397Z,98.30
2019-01-29T21:08:19.397Z,98.60
2019-01-29T21:10:51.392Z,98.30
2019-01-29T21:13:23.427Z,98.60
2019-01-29T21:15:55.418Z,98.40
2019-01-29T21:18:27.420Z,98.20
2019-01-29T21:20:59.498Z,98.00
2019-01-29T21:23:31.573Z,97.80
2019-01-29T21:26:03.568Z,97.90
2019-01-29T21:28:35.558Z,98.10
2019-01-29T21:31:07.666Z,98.40
2019-01-29T21:33:39.650Z,98.40
2019-01-29T21:36:11.642Z,98.70
2019-01-29T21:38:43.646Z,98.90
2019-01-29T21:41:15.638Z,98.90
2019-01-29T21:43:47.711Z,98.70
2019-01-29T21:46:19.704Z,98.40
2019-01-29T21:48:51.704Z,98.30
2019-01-29T21:51:23.703Z,98.10
2019-01-29T21:53:55.783Z,97.90
2019-01-29T21:56:27.775Z,97.90
2019-01-29T21:58:59.778Z,97.80
2019-01-29T22:01:31.796Z,98.10
2019-01-29T22:04:05.004Z,98.40
2019-01-29T22:06:36.991Z,98.80
2019-01-29T22:09:11.323Z,98.80
2019-01-29T22:11:43.318Z,98.80
2019-01-29T22:14:15.451Z,99.00
2019-01-29T22:16:47.570Z,98.90
2019-01-29T22:19:19.574Z,98.50
2019-01-29T22:21:51.568Z,98.40
2019-01-29T22:24:23.577Z,98.20
2019-01-29T22:26:55.647Z,98.20
2019-01-29T22:29:27.650Z,98.30
2019-01-29T22:31:59.649Z,98.10
2019-01-29T22:34:31.644Z,98.30
2019-01-29T22:37:03.644Z,98.00
2019-01-29T22:39:35.638Z,97.70
2019-01-29T22:42:07.937Z,97.80
2019-01-29T22:44:39.948Z,98.00
2019-01-29T22:47:11.960Z,97.80
2019-01-29T22:49:44.026Z,97.70
2019-01-29T22:52:16.031Z,98.40
2019-01-29T22:54:48.026Z,98.60
2019-01-29T22:57:20.015Z,98.20
2019-01-29T22:59:52.014Z,98.20
2019-01-29T23:02:24.010Z,98.40
2019-01-29T23:04:56.010Z,98.50
2019-01-29T23:07:35.638Z,98.40
2019-01-29T23:10:14.765Z,98.30
2019-01-29T23:12:46.839Z,98.10
2019-01-29T23:15:20.209Z,98.10
2019-01-29T23:17:53.094Z,98.40
2019-01-29T23:20:25.539Z,98.10
2019-01-29T23:22:57.540Z,98.10
2019-01-29T23:25:29.619Z,98.20
2019-01-29T23:28:01.619Z,98.10
2019-01-29T23:30:33.616Z,98.20
2019-01-29T23:33:05.883Z,98.40
2019-01-29T23:35:37.888Z,98.50
2019-01-29T23:38:09.882Z,98.40
2019-01-29T23:40:41.991Z,98.20
2019-01-29T23:43:13.985Z,98.10
2019-01-29T23:45:45.993Z,98.00
2019-01-29T23:48:18.024Z,97.90
2019-01-29T23:50:50.025Z,97.80
2019-01-29T23:53:22.017Z,97.80
2019-01-29T23:55:54.093Z,97.80
2019-01-29T23:58:26.864Z,97.70
